Aérodrome :
LOGIN :

S'inscrire | Disclaimer

   EN    FR    IT 

 










Légende :    VFR   VFR Marginal   IFR   IFR Intensif   IFR Très Intensif
Visi : 
Plafond : 
>= 8 km
>= 3000ft
5 à 8 km
1000 à 3000 ft
1500m à 5 km
500 à 1000 ft
800 à 1500m
200 à 500 ft
< 800m
< 200 ft
Symboles :   Orages  Brouillard  Fortes neiges  Fortes précipitations  Vent > 20 kt
SIGMETs :   Divers  Orages  Givrage  Turbulence  Onde Orograph.  Cendres Volcan.






- Altitude de l'aérodrome : 102 ft
- Code IATA : CNG


LFBG - Cognac

DERNIER METAR :
  • 272030Z AUTO 20011KT 9999 ///TCU 09/08 Q1010

METARs EXPIRÉS :
  • 272000Z AUTO 20010KT 9999 -RA FEW044/// BKN054/// OVC066/// ///CB 09/08 Q1010
  • 271930Z AUTO 22009KT 9999 FEW016/// OVC066/// ///CB 08/08 Q1010
  • 271900Z AUTO 25017G28KT 4300 -RA BR FEW013/// SCT025/// BKN039/// ///CB 08/07 Q1010
  • 271830Z AUTO 21021KT 5000 RA BR BKN016/// BKN033/// BKN044/// ///CB 11/10 Q1009
  • 271800Z AUTO 19016KT 9999 SCT022/// BKN035/// BKN048/// ///CB 11/09 Q1008

TAF TAF LFBG
Valide du 27 à 15h jusqu'au 28 à 15h UTC


271400Z 2715/2815 20012KT 9999 BKN008 BKN025
TEMPO 2715/2720 20015G25KT 2500 RA BKN005
PROB40
TEMPO 2715/2815 20015G30KT 3000 SHRA BKN020TCU



MET'MAP, la Météo Aéronautique d'un coup d'oeil ! - Copyright ORBIFLY Décembre 2007 - Disclaimer

ORBIFLY MET'MAP TEAM :

Programmation & Développement : Alexandra Zaïnal
Sur une idée originale de : Baudouin d'Aumeries
Assistance à la programmation : Marc-Olivier Méhu
Soutien technique & logistique : Manuel Goepfert

Contact : metmap@orbifly.com




SOURCES & CREDITS :

   NOAA